Time;durP1;ratioP1;P1;durP2;ratioP2;P2;SDS_P1;SDS_P2;PMS_P1;PMS_P2;Temp;Humidity;BMP_temperature;BMP_pressure;BME280_temperature;BME280_humidity;BME280_pressure;Samples;Min_cycle;Max_cycle;Signal;HPM_P1;HPM_P2
2022/06/22 00:02:12;;;;;;;2.97;2.03;;;21.80;55.30;;;;;;5091698;28;20225;-62
2022/06/22 00:04:43;;;;;;;2.60;2.25;;;21.80;55.20;;;;;;5101093;28;20267;-62
2022/06/22 00:07:13;;;;;;;3.65;2.03;;;21.80;55.20;;;;;;5111217;28;20596;-61
2022/06/22 00:09:40;;;;;;;4.82;2.25;;;21.70;55.10;;;;;;5112203;28;20173;-61
2022/06/22 00:12:06;;;;;;;2.92;2.10;;;21.70;55.10;;;;;;5111943;28;20176;-61
2022/06/22 00:14:44;;;;;;;4.78;2.45;;;21.70;55.00;;;;;;5112456;28;20177;-61
2022/06/22 00:17:21;;;;;;;2.63;2.42;;;21.70;55.00;;;;;;5113075;28;20184;-61
2022/06/22 00:19:47;;;;;;;3.45;2.22;;;21.70;55.70;;;;;;5112007;28;20199;-61
2022/06/22 00:22:24;;;;;;;2.85;2.15;;;21.70;55.00;;;;;;5111149;28;20216;-61
2022/06/22 00:24:58;;;;;;;3.67;2.50;;;21.70;55.10;;;;;;5112981;28;20181;-62
2022/06/22 00:27:35;;;;;;;4.78;2.70;;;21.70;55.00;;;;;;5111399;28;20176;-61
2022/06/22 00:30:11;;;;;;;7.78;2.65;;;21.70;55.00;;;;;;5112927;28;20688;-62
2022/06/22 00:32:36;;;;;;;2.58;2.30;;;21.70;55.00;;;;;;5111892;28;20225;-62
2022/06/22 00:35:41;;;;;;;4.60;2.75;;;21.60;55.00;;;;;;5111176;28;20169;-62
2022/06/22 00:38:09;;;;;;;5.18;2.90;;;21.70;55.00;;;;;;5113063;28;20196;-62
2022/06/22 00:40:34;;;;;;;2.58;2.38;;;21.70;55.00;;;;;;5115746;28;20218;-62
2022/06/22 00:43:00;;;;;;;5.05;2.95;;;21.60;54.90;;;;;;5114980;28;20196;-62
2022/06/22 00:45:27;;;;;;;3.30;2.70;;;21.70;55.00;;;;;;5117090;28;20601;-61
2022/06/22 00:47:59;;;;;;;6.38;3.03;;;21.60;54.90;;;;;;5115448;28;20184;-61
2022/06/22 00:50:27;;;;;;;3.60;2.65;;;21.60;55.00;;;;;;5116465;28;20176;-61
2022/06/22 00:53:00;;;;;;;2.95;2.67;;;21.60;54.90;;;;;;5115479;28;20177;-61
2022/06/22 00:55:35;;;;;;;5.53;2.80;;;21.60;54.90;;;;;;5115839;28;20211;-62
2022/06/22 00:58:13;;;;;;;2.88;2.58;;;21.60;54.90;;;;;;5115481;28;20173;-62
2022/06/22 01:00:41;;;;;;;3.38;2.70;;;21.60;54.90;;;;;;5115452;28;20259;-62
2022/06/22 01:03:15;;;;;;;3.58;2.67;;;21.60;54.90;;;;;;5115299;28;20232;-62
2022/06/22 01:05:46;;;;;;;3.10;2.80;;;21.60;54.90;;;;;;5098511;28;20212;-62
2022/06/22 01:08:17;;;;;;;8.73;3.70;;;21.60;55.00;;;;;;5095137;28;20174;-62
2022/06/22 01:14:05;;;;;;;4.13;2.90;;;21.60;55.00;;;;;;5087874;28;20654;-61
2022/06/22 01:16:35;;;;;;;6.75;2.70;;;21.60;55.00;;;;;;5094912;28;20196;-61
2022/06/22 01:19:06;;;;;;;3.70;2.80;;;21.60;55.00;;;;;;5095345;28;20178;-61
2022/06/22 01:21:37;;;;;;;3.08;2.85;;;21.50;54.90;;;;;;5094481;28;20181;-61
2022/06/22 01:24:30;;;;;;;3.40;2.92;;;21.50;54.90;;;;;;5093803;28;20294;-62
2022/06/22 01:27:28;;;;;;;5.57;2.90;;;21.50;55.00;;;;;;5094448;28;20178;-62
2022/06/22 01:29:56;;;;;;;5.10;2.65;;;21.50;55.00;;;;;;5079276;28;20252;-62
2022/06/22 01:32:23;;;;;;;3.10;2.80;;;21.50;55.00;;;;;;5094833;28;20296;-63
2022/06/22 01:34:50;;;;;;;3.95;2.60;;;21.50;55.00;;;;;;5094274;28;20178;-63
2022/06/22 01:37:18;;;;;;;3.50;2.50;;;21.50;55.00;;;;;;5094560;28;20185;-63
2022/06/22 01:39:44;;;;;;;4.47;3.13;;;21.50;55.00;;;;;;5093352;28;20665;-62
2022/06/22 01:42:24;;;;;;;3.17;2.67;;;21.50;55.10;;;;;;5094185;28;20260;-61
2022/06/22 01:45:00;;;;;;;3.47;2.90;;;21.50;55.00;;;;;;5093512;28;20170;-62
2022/06/22 01:47:29;;;;;;;3.30;3.00;;;21.50;55.00;;;;;;5095581;28;20182;-61
2022/06/22 01:50:08;;;;;;;3.53;2.88;;;21.40;55.00;;;;;;5095173;28;20191;-61
2022/06/22 01:52:40;;;;;;;3.90;3.22;;;21.50;54.90;;;;;;5094101;28;20169;-61
2022/06/22 01:55:27;;;;;;;3.42;2.78;;;21.50;55.00;;;;;;5095249;28;20174;-62
2022/06/22 01:58:01;;;;;;;3.80;2.90;;;21.50;55.00;;;;;;5094002;28;20189;-62
2022/06/22 02:00:27;;;;;;;5.60;3.13;;;21.40;54.90;;;;;;5094377;28;20177;-62
2022/06/22 02:03:15;;;;;;;4.50;2.97;;;21.40;55.00;;;;;;5093489;28;20320;-62
2022/06/22 02:05:56;;;;;;;3.72;2.80;;;21.40;55.00;;;;;;5111120;28;20181;-63
2022/06/22 02:08:37;;;;;;;3.00;2.70;;;21.40;55.00;;;;;;5114496;28;20306;-62
2022/06/22 02:11:05;;;;;;;5.53;3.40;;;21.40;55.10;;;;;;5115380;28;20185;-62
2022/06/22 02:13:50;;;;;;;3.97;3.00;;;21.40;55.00;;;;;;5113377;28;20536;-62
2022/06/22 02:16:25;;;;;;;3.45;3.13;;;21.40;55.10;;;;;;5114405;28;20173;-62
2022/06/22 02:18:57;;;;;;;4.15;2.75;;;21.40;55.10;;;;;;5114887;28;20556;-62
2022/06/22 02:21:26;;;;;;;3.25;2.80;;;21.40;55.10;;;;;;5114559;28;20184;-61
2022/06/22 02:24:03;;;;;;;4.68;3.25;;;21.40;55.10;;;;;;5114678;28;20205;-61
2022/06/22 02:27:08;;;;;;;3.92;2.90;;;21.40;55.10;;;;;;5114144;28;20176;-62
2022/06/22 02:29:35;;;;;;;5.15;3.20;;;21.40;55.10;;;;;;5115055;28;20181;-62
2022/06/22 02:32:04;;;;;;;5.22;3.63;;;21.40;55.10;;;;;;5113763;28;20171;-62
2022/06/22 02:34:32;;;;;;;4.03;3.10;;;21.40;55.20;;;;;;5112886;28;20173;-63
2022/06/22 02:36:57;;;;;;;5.15;3.20;;;21.40;55.10;;;;;;5113620;28;20173;-62
2022/06/22 02:39:23;;;;;;;4.72;3.20;;;21.30;55.20;;;;;;5113762;28;20707;-62
2022/06/22 02:44:35;;;;;;;4.55;3.47;;;21.40;55.10;;;;;;5113426;28;20245;-61
2022/06/22 02:47:31;;;;;;;3.15;2.88;;;21.40;55.10;;;;;;5114620;28;20177;-61
2022/06/22 02:50:27;;;;;;;3.25;2.95;;;21.30;55.10;;;;;;5112823;28;20594;-61
2022/06/22 02:52:56;;;;;;;3.42;2.88;;;21.30;55.20;;;;;;5112976;28;20212;-61
2022/06/22 02:55:25;;;;;;;6.18;3.28;;;21.30;55.20;;;;;;5112592;28;20177;-62
2022/06/22 02:57:51;;;;;;;4.75;3.20;;;21.30;55.20;;;;;;5114287;28;20180;-62
2022/06/22 03:00:19;;;;;;;4.30;3.35;;;21.30;55.20;;;;;;5114277;28;20173;-62
2022/06/22 03:02:45;;;;;;;3.47;3.17;;;21.30;55.20;;;;;;5112532;28;20237;-62
2022/06/22 03:05:10;;;;;;;4.10;3.40;;;21.20;55.10;;;;;;5100178;28;20206;-62
2022/06/22 03:07:42;;;;;;;3.80;3.40;;;21.30;55.30;;;;;;5075652;28;20574;-62
2022/06/22 03:10:21;;;;;;;3.78;3.47;;;21.30;55.20;;;;;;5075566;28;20616;-62
2022/06/22 03:12:47;;;;;;;3.08;2.63;;;21.30;55.30;;;;;;5076171;28;20178;-61
2022/06/22 03:15:13;;;;;;;3.85;3.28;;;21.30;55.20;;;;;;5093767;28;20179;-62
2022/06/22 03:17:38;;;;;;;5.43;3.70;;;21.30;55.20;;;;;;5074726;28;20212;-61
2022/06/22 03:20:16;;;;;;;4.13;3.38;;;21.30;55.20;;;;;;5093603;28;20197;-62
2022/06/22 03:22:43;;;;;;;3.88;3.45;;;21.30;55.20;;;;;;5092105;28;20216;-61
2022/06/22 03:25:11;;;;;;;5.05;3.50;;;21.20;55.10;;;;;;5092927;28;20294;-62
2022/06/22 03:27:40;;;;;;;4.22;3.60;;;21.30;55.20;;;;;;5093305;28;20178;-62
2022/06/22 03:30:29;;;;;;;4.72;3.30;;;21.30;55.20;;;;;;5092163;28;20204;-62
2022/06/22 03:33:00;;;;;;;3.92;3.50;;;21.20;55.10;;;;;;5093089;28;20221;-62
2022/06/22 03:35:41;;;;;;;5.53;3.60;;;21.20;55.10;;;;;;5093739;28;20256;-62
2022/06/22 03:38:16;;;;;;;4.20;3.10;;;21.20;55.10;;;;;;5091399;28;20646;-62
2022/06/22 03:40:45;;;;;;;3.60;3.00;;;21.20;55.10;;;;;;5092003;28;20201;-61
2022/06/22 03:43:19;;;;;;;4.00;3.60;;;21.20;55.10;;;;;;5075521;28;20217;-62
2022/06/22 03:45:51;;;;;;;4.53;3.55;;;21.20;55.10;;;;;;5091297;28;20697;-62
2022/06/22 03:48:32;;;;;;;3.20;2.90;;;21.20;55.20;;;;;;5075810;28;20182;-61
2022/06/22 03:51:03;;;;;;;3.40;3.10;;;21.20;55.10;;;;;;5091730;28;20177;-61
2022/06/22 03:53:58;;;;;;;4.40;3.60;;;21.20;55.10;;;;;;5091326;28;20220;-61
2022/06/22 03:56:26;;;;;;;3.70;3.17;;;21.20;55.10;;;;;;5084624;28;20189;-62
2022/06/22 03:58:52;;;;;;;4.25;3.05;;;21.20;55.00;;;;;;5092091;28;20181;-61
2022/06/22 04:01:18;;;;;;;3.40;3.05;;;21.20;55.00;;;;;;5093358;28;20170;-62
2022/06/22 04:03:43;;;;;;;4.43;3.25;;;21.20;55.00;;;;;;5093917;28;20248;-61
2022/06/22 04:06:24;;;;;;;3.65;3.35;;;21.20;55.00;;;;;;5112630;28;20177;-64
2022/06/22 04:08:50;;;;;;;3.47;3.10;;;21.20;55.10;;;;;;5112120;28;20200;-62
2022/06/22 04:11:24;;;;;;;4.35;3.28;;;21.20;55.00;;;;;;5113426;28;20196;-61
2022/06/22 04:13:56;;;;;;;3.55;3.22;;;21.30;55.00;;;;;;5111306;28;20205;-61
2022/06/22 04:16:33;;;;;;;5.18;3.50;;;21.30;55.00;;;;;;5111981;28;20172;-61
2022/06/22 04:19:32;;;;;;;4.35;3.13;;;21.20;55.00;;;;;;5111912;28;20169;-61
2022/06/22 04:22:26;;;;;;;3.30;3.00;;;21.30;55.00;;;;;;5108902;28;20188;-61
2022/06/22 04:25:00;;;;;;;3.97;3.08;;;21.30;55.00;;;;;;5110300;28;20655;-62
2022/06/22 04:27:27;;;;;;;3.72;3.33;;;21.30;55.00;;;;;;5111467;28;20225;-62
2022/06/22 04:29:59;;;;;;;3.63;3.33;;;21.30;55.00;;;;;;5111398;28;20669;-62
2022/06/22 04:32:37;;;;;;;4.38;3.50;;;21.30;55.00;;;;;;5112038;28;20181;-62
2022/06/22 04:35:36;;;;;;;5.68;3.28;;;21.30;55.00;;;;;;5111095;28;20217;-63
2022/06/22 04:38:11;;;;;;;4.28;3.13;;;21.20;55.00;;;;;;5097849;28;20623;-63
2022/06/22 04:40:47;;;;;;;3.10;2.80;;;21.20;55.00;;;;;;5111263;28;20173;-62
2022/06/22 04:43:12;;;;;;;4.10;3.20;;;21.30;55.00;;;;;;5111792;28;20212;-62
2022/06/22 04:45:43;;;;;;;4.00;3.60;;;21.30;55.00;;;;;;5112897;28;20165;-62
2022/06/22 04:48:15;;;;;;;3.17;2.88;;;21.30;55.00;;;;;;5112402;28;20598;-61
2022/06/22 04:50:42;;;;;;;3.42;2.78;;;21.30;55.00;;;;;;5111728;28;20173;-61
2022/06/22 04:53:15;;;;;;;6.18;3.63;;;21.30;55.00;;;;;;5111682;28;20177;-61
2022/06/22 04:55:41;;;;;;;3.65;3.13;;;21.30;55.00;;;;;;5110876;28;20176;-61
2022/06/22 04:58:25;;;;;;;3.40;3.10;;;21.30;54.90;;;;;;5111535;28;20180;-62
2022/06/22 05:00:50;;;;;;;4.53;2.90;;;21.30;55.00;;;;;;5112686;28;20169;-63
2022/06/22 05:03:16;;;;;;;4.57;2.83;;;21.30;55.00;;;;;;5111690;28;20721;-62
2022/06/22 05:05:41;;;;;;;2.60;2.40;;;21.30;55.00;;;;;;5094423;28;20181;-63
2022/06/22 05:08:22;;;;;;;3.22;2.92;;;21.30;55.10;;;;;;5074163;28;20212;-62
2022/06/22 05:10:55;;;;;;;3.17;2.47;;;21.30;55.00;;;;;;5075183;28;20193;-62
2022/06/22 05:13:23;;;;;;;2.95;2.63;;;21.30;55.00;;;;;;5091374;28;20178;-62
2022/06/22 05:15:50;;;;;;;3.72;3.33;;;21.30;55.00;;;;;;5091466;28;20257;-62
2022/06/22 05:18:21;;;;;;;3.50;2.70;;;21.30;55.00;;;;;;5074493;28;20174;-62
2022/06/22 05:20:54;;;;;;;2.97;2.78;;;21.30;55.00;;;;;;5074210;28;20257;-62
2022/06/22 05:23:21;;;;;;;3.50;3.20;;;21.30;55.30;;;;;;5090237;28;20227;-62
2022/06/22 05:25:48;;;;;;;2.58;2.30;;;21.30;55.00;;;;;;5091914;28;20632;-62
2022/06/22 05:28:17;;;;;;;3.88;2.90;;;21.30;55.00;;;;;;5095381;28;20651;-63
2022/06/22 05:31:16;;;;;;;3.03;2.75;;;21.30;55.00;;;;;;5093617;28;20178;-63
2022/06/22 05:33:46;;;;;;;3.55;2.63;;;21.30;55.00;;;;;;5092250;28;20589;-63
2022/06/22 05:36:12;;;;;;;2.92;2.72;;;21.30;55.00;;;;;;5095902;28;20187;-63
2022/06/22 05:38:44;;;;;;;3.45;2.92;;;21.30;55.00;;;;;;5094964;28;20623;-63
2022/06/22 05:41:10;;;;;;;3.88;2.45;;;21.30;55.00;;;;;;5094347;28;20182;-62
2022/06/22 05:43:38;;;;;;;2.97;2.40;;;21.30;55.00;;;;;;5094280;28;20220;-62
2022/06/22 05:46:06;;;;;;;3.40;2.67;;;21.30;55.00;;;;;;5094803;28;20269;-62
2022/06/22 05:48:34;;;;;;;3.20;2.90;;;21.30;55.00;;;;;;5077711;28;20589;-62
2022/06/22 05:51:02;;;;;;;3.45;2.97;;;21.30;55.00;;;;;;5076932;28;20181;-61
2022/06/22 05:53:37;;;;;;;3.08;2.83;;;21.40;55.10;;;;;;5095463;28;20234;-62
2022/06/22 05:56:12;;;;;;;2.63;2.42;;;21.30;55.00;;;;;;5078486;28;20173;-62
2022/06/22 05:58:53;;;;;;;3.00;2.70;;;21.30;55.00;;;;;;5093297;28;20185;-63
2022/06/22 06:01:47;;;;;;;2.90;2.60;;;21.30;55.10;;;;;;5094229;28;20177;-62
2022/06/22 06:04:23;;;;;;;3.03;2.78;;;21.30;55.10;;;;;;5099509;28;20303;-63
2022/06/22 06:06:49;;;;;;;2.92;2.65;;;21.30;55.10;;;;;;5113252;28;20208;-63
2022/06/22 06:09:20;;;;;;;3.00;2.30;;;21.30;55.00;;;;;;5114244;28;20201;-62
2022/06/22 06:11:51;;;;;;;2.78;2.58;;;21.30;55.00;;;;;;5115107;28;20560;-62
2022/06/22 06:14:44;;;;;;;2.95;2.67;;;21.30;55.10;;;;;;5113681;28;20171;-62
2022/06/22 06:17:28;;;;;;;2.13;1.92;;;21.40;55.10;;;;;;5114175;28;20184;-62
2022/06/22 06:19:54;;;;;;;4.07;2.70;;;21.40;55.00;;;;;;5113228;28;20181;-62
2022/06/22 06:22:22;;;;;;;4.07;2.88;;;21.40;55.00;;;;;;5114116;28;20535;-62
2022/06/22 06:27:38;;;;;;;2.40;2.17;;;21.40;55.00;;;;;;5114430;28;20238;-63
2022/06/22 06:30:07;;;;;;;3.30;2.70;;;21.30;55.00;;;;;;5113931;28;20776;-63
2022/06/22 06:32:35;;;;;;;3.13;2.55;;;21.30;54.90;;;;;;5113925;28;20169;-63
2022/06/22 06:35:15;;;;;;;2.65;2.45;;;21.40;55.00;;;;;;5114168;28;20643;-63
2022/06/22 06:38:23;;;;;;;2.83;2.30;;;21.40;55.00;;;;;;5113558;28;20173;-63
2022/06/22 06:41:03;;;;;;;3.60;2.92;;;21.30;55.00;;;;;;5112801;28;20184;-63
2022/06/22 06:43:49;;;;;;;3.03;2.72;;;21.40;55.10;;;;;;5114741;28;20208;-62
2022/06/22 06:46:22;;;;;;;2.58;2.38;;;21.40;55.10;;;;;;5113560;28;20222;-62
2022/06/22 06:48:51;;;;;;;2.30;2.20;;;21.40;55.10;;;;;;5113583;28;20230;-62
2022/06/22 06:51:17;;;;;;;2.40;2.20;;;21.40;55.10;;;;;;5113535;28;20555;-61
2022/06/22 06:53:56;;;;;;;3.10;2.45;;;21.40;55.10;;;;;;5113455;28;20172;-62
2022/06/22 06:56:27;;;;;;;2.55;2.35;;;21.40;55.10;;;;;;5112674;28;20213;-62
2022/06/22 06:58:54;;;;;;;2.80;2.03;;;21.40;55.10;;;;;;5113111;28;20224;-62
2022/06/22 07:01:24;;;;;;;2.35;2.25;;;21.40;55.10;;;;;;5112416;28;20219;-62
2022/06/22 07:03:52;;;;;;;2.47;2.28;;;21.50;55.20;;;;;;5111367;28;20221;-63
2022/06/22 07:06:18;;;;;;;3.22;2.30;;;21.40;55.10;;;;;;5092927;28;20272;-63
2022/06/22 07:09:03;;;;;;;2.22;2.08;;;21.50;55.20;;;;;;5092866;28;20208;-63
2022/06/22 07:11:44;;;;;;;2.00;1.90;;;21.50;55.20;;;;;;5076871;28;20182;-62
2022/06/22 07:14:32;;;;;;;2.55;2.35;;;21.50;55.20;;;;;;5076304;28;20696;-62
2022/06/22 07:17:05;;;;;;;2.85;2.10;;;21.50;55.10;;;;;;5091621;28;20185;-62
2022/06/22 07:19:40;;;;;;;2.60;1.90;;;21.50;55.10;;;;;;5093650;28;20178;-62
2022/06/22 07:22:16;;;;;;;2.60;2.03;;;21.50;55.10;;;;;;5092416;28;20199;-62
2022/06/22 07:25:09;;;;;;;2.45;2.00;;;21.50;55.10;;;;;;5091710;28;20233;-60
2022/06/22 07:27:57;;;;;;;2.78;2.28;;;21.60;55.20;;;;;;5093404;28;20295;-59
2022/06/22 07:30:35;;;;;;;2.40;2.20;;;21.60;55.20;;;;;;5092668;28;20177;-60
2022/06/22 07:33:12;;;;;;;2.47;2.20;;;21.60;55.20;;;;;;5092380;28;20182;-61
2022/06/22 07:35:44;;;;;;;2.47;2.13;;;21.60;55.30;;;;;;5092377;28;20215;-60
2022/06/22 07:38:18;;;;;;;3.85;2.47;;;21.60;55.30;;;;;;5091404;28;20643;-60
2022/06/22 07:41:18;;;;;;;2.33;1.70;;;21.60;55.30;;;;;;5092949;28;20180;-60
2022/06/22 07:43:30;;;;;;;2.40;2.00;;;21.60;55.40;;;;;;5092326;28;20213;-60
2022/06/22 07:45:56;;;;;;;2.70;1.90;;;21.60;55.30;;;;;;5093077;28;20170;-60
2022/06/22 07:48:21;;;;;;;5.30;2.28;;;21.60;55.40;;;;;;5093147;28;20739;-59
2022/06/22 07:50:51;;;;;;;2.22;2.03;;;21.60;55.40;;;;;;5073701;28;20178;-60
2022/06/22 07:53:17;;;;;;;3.20;2.00;;;21.60;55.30;;;;;;5091932;28;20176;-60
2022/06/22 07:56:14;;;;;;;2.95;2.13;;;21.60;55.40;;;;;;5091872;28;20261;-60
2022/06/22 07:58:45;;;;;;;2.22;2.00;;;21.70;55.40;;;;;;5021537;28;20211;-60
2022/06/22 08:01:12;;;;;;;2.70;1.88;;;21.80;55.30;;;;;;5091836;28;20181;-60
2022/06/22 08:03:50;;;;;;;3.42;2.10;;;21.80;55.30;;;;;;5091959;28;20267;-60
2022/06/22 08:06:21;;;;;;;5.50;2.35;;;21.80;55.30;;;;;;5111527;28;20547;-61
2022/06/22 08:08:55;;;;;;;2.10;1.95;;;21.80;55.30;;;;;;5112019;28;20180;-61
2022/06/22 08:11:25;;;;;;;2.97;2.50;;;21.90;55.30;;;;;;5112374;28;20177;-60
2022/06/22 08:13:54;;;;;;;5.22;2.58;;;21.90;55.30;;;;;;5111296;28;20165;-60
2022/06/22 08:16:28;;;;;;;3.63;2.15;;;21.90;55.40;;;;;;5112046;28;20176;-59
2022/06/22 08:18:54;;;;;;;2.13;1.92;;;21.90;55.40;;;;;;5112400;28;20618;-60
2022/06/22 08:21:21;;;;;;;5.15;2.53;;;21.90;55.30;;;;;;5112238;28;20623;-59
2022/06/22 08:23:46;;;;;;;3.25;2.35;;;21.90;55.30;;;;;;5111643;28;20213;-60
2022/06/22 08:26:17;;;;;;;3.97;2.30;;;21.90;55.40;;;;;;5112332;28;20650;-60
2022/06/22 08:28:42;;;;;;;2.50;2.30;;;22.00;55.50;;;;;;5113109;28;20177;-60
2022/06/22 08:31:08;;;;;;;2.55;2.22;;;22.00;55.40;;;;;;5111933;28;20649;-60
2022/06/22 08:33:36;;;;;;;2.85;2.42;;;22.00;56.10;;;;;;5112252;28;20775;-60
2022/06/22 08:36:19;;;;;;;2.95;2.10;;;22.00;55.30;;;;;;5113075;28;20196;-60
2022/06/22 08:39:05;;;;;;;2.15;1.95;;;22.00;55.30;;;;;;5111758;28;20188;-60
2022/06/22 08:41:39;;;;;;;2.78;2.03;;;22.00;55.30;;;;;;5111498;28;20234;-59
2022/06/22 08:44:20;;;;;;;1.98;1.88;;;22.10;55.30;;;;;;5111788;28;20205;-60
2022/06/22 08:47:26;;;;;;;2.95;2.00;;;22.10;55.30;;;;;;5111943;28;20165;-59
2022/06/22 08:50:22;;;;;;;3.30;2.13;;;22.10;55.20;;;;;;5029880;28;20254;-59
2022/06/22 08:52:53;;;;;;;2.22;2.08;;;22.10;55.20;;;;;;5032748;28;20190;-60
2022/06/22 08:55:45;;;;;;;3.92;1.98;;;22.20;55.20;;;;;;5089667;28;20226;-59
2022/06/22 08:58:29;;;;;;;2.63;1.90;;;22.20;55.10;;;;;;5112115;28;20169;-59
2022/06/22 09:01:00;;;;;;;2.78;1.90;;;22.20;55.10;;;;;;5110888;28;20177;-59
2022/06/22 09:03:50;;;;;;;3.25;1.92;;;22.20;55.10;;;;;;5115247;28;20220;-59
2022/06/22 09:06:21;;;;;;;2.28;2.08;;;22.20;55.10;;;;;;5076168;28;20554;-59
2022/06/22 09:09:00;;;;;;;5.43;2.28;;;22.30;55.10;;;;;;5074768;28;20653;-59
2022/06/22 09:11:44;;;;;;;1.55;1.45;;;22.30;55.10;;;;;;5075843;28;20254;-59
2022/06/22 09:14:27;;;;;;;2.05;1.88;;;22.30;55.00;;;;;;5074685;28;20662;-59
2022/06/22 09:17:03;;;;;;;2.50;1.95;;;22.30;55.00;;;;;;5074994;28;20206;-60
2022/06/22 09:19:41;;;;;;;3.55;1.80;;;22.30;54.90;;;;;;5074548;28;20269;-59
2022/06/22 09:22:07;;;;;;;2.45;1.70;;;22.40;55.00;;;;;;5074995;28;20178;-59
2022/06/22 09:24:41;;;;;;;4.00;2.10;;;22.40;54.90;;;;;;5075511;28;20308;-59
2022/06/22 09:27:19;;;;;;;2.30;1.65;;;22.40;54.90;;;;;;5074496;28;20261;-59
2022/06/22 09:30:23;;;;;;;2.10;2.00;;;22.40;54.90;;;;;;5074738;28;20257;-60
2022/06/22 09:33:22;;;;;;;2.50;1.85;;;22.50;54.80;;;;;;5074497;28;20189;-59
2022/06/22 09:36:13;;;;;;;1.73;1.63;;;22.50;55.40;;;;;;5075448;28;20179;-60
2022/06/22 09:39:01;;;;;;;1.90;1.70;;;22.50;54.70;;;;;;5074108;28;20219;-59
2022/06/22 09:41:41;;;;;;;1.73;1.63;;;22.50;54.70;;;;;;5075394;28;20185;-60
2022/06/22 09:44:37;;;;;;;2.47;1.88;;;22.50;54.60;;;;;;5074368;28;20669;-59
2022/06/22 09:47:17;;;;;;;2.10;1.63;;;22.60;54.70;;;;;;5075240;28;20180;-60
2022/06/22 09:50:04;;;;;;;1.83;1.70;;;22.60;54.70;;;;;;5074068;28;20304;-59
2022/06/22 09:52:55;;;;;;;3.35;1.70;;;22.60;54.60;;;;;;5093155;28;20232;-59
2022/06/22 09:58:56;;;;;;;1.95;1.73;;;22.60;54.60;;;;;;5074379;28;20189;-60
2022/06/22 10:01:46;;;;;;;1.98;1.67;;;22.60;54.50;;;;;;5051109;28;20179;-60
2022/06/22 10:04:32;;;;;;;2.00;1.60;;;22.60;54.60;;;;;;5084400;28;20228;-60
2022/06/22 10:07:43;;;;;;;1.73;1.60;;;22.60;54.60;;;;;;5114218;28;20187;-60
2022/06/22 10:10:21;;;;;;;1.98;1.63;;;22.70;54.50;;;;;;5070006;28;20221;-59
2022/06/22 10:12:58;;;;;;;3.67;1.67;;;22.70;54.50;;;;;;5112903;28;20309;-59
2022/06/22 10:15:42;;;;;;;2.15;1.60;;;22.70;54.40;;;;;;5115648;28;20177;-59
2022/06/22 10:18:32;;;;;;;1.80;1.60;;;22.70;54.40;;;;;;5114098;28;20174;-60
2022/06/22 10:21:10;;;;;;;1.67;1.58;;;22.70;54.30;;;;;;5113764;28;20260;-60
2022/06/22 10:24:07;;;;;;;3.17;1.40;;;22.70;54.30;;;;;;5115133;28;20267;-59
2022/06/22 10:27:07;;;;;;;1.52;1.38;;;22.80;54.20;;;;;;5113285;28;20177;-59
2022/06/22 10:29:32;;;;;;;1.58;1.45;;;22.80;54.20;;;;;;5113864;28;20181;-59
2022/06/22 10:32:01;;;;;;;1.88;1.60;;;22.80;54.20;;;;;;5114630;28;20169;-60
2022/06/22 10:34:42;;;;;;;1.45;1.35;;;22.80;54.10;;;;;;5114262;28;20720;-60
2022/06/22 10:37:27;;;;;;;3.42;1.40;;;22.80;54.10;;;;;;5114804;28;20180;-59
2022/06/22 10:40:11;;;;;;;2.05;1.45;;;22.80;54.10;;;;;;5113031;28;20306;-59
2022/06/22 10:45:43;;;;;;;3.35;1.60;;;22.80;54.20;;;;;;5113840;28;20696;-59
2022/06/22 10:48:32;;;;;;;2.38;1.50;;;22.80;54.20;;;;;;5112715;28;20184;-59
2022/06/22 10:51:06;;;;;;;4.13;1.40;;;22.80;54.20;;;;;;5114610;28;20282;-59
2022/06/22 10:53:41;;;;;;;2.97;1.38;;;22.80;54.20;;;;;;5112747;28;20220;-59
2022/06/22 10:56:28;;;;;;;3.00;1.55;;;22.80;54.20;;;;;;5114719;28;20222;-60
2022/06/22 10:59:30;;;;;;;4.43;1.70;;;22.80;54.20;;;;;;5114117;28;20173;-60
2022/06/22 11:02:31;;;;;;;3.38;1.60;;;22.90;54.20;;;;;;5113373;28;20176;-60
2022/06/22 11:05:07;;;;;;;4.22;1.60;;;22.90;54.10;;;;;;5100820;28;20258;-60
2022/06/22 11:08:13;;;;;;;4.25;1.77;;;22.90;53.90;;;;;;5093250;28;20169;-59
2022/06/22 11:11:10;;;;;;;7.22;1.90;;;22.90;53.90;;;;;;5092907;28;20185;-59
2022/06/22 11:14:13;;;;;;;4.03;1.30;;;23.00;53.90;;;;;;5093862;28;20170;-59
2022/06/22 11:16:51;;;;;;;1.52;1.35;;;22.90;53.80;;;;;;5077022;28;20177;-60
2022/06/22 11:19:46;;;;;;;3.72;1.55;;;23.00;53.80;;;;;;5093705;28;20177;-59
2022/06/22 11:22:29;;;;;;;4.10;1.38;;;23.00;53.80;;;;;;5092220;28;20189;-59
2022/06/22 11:25:06;;;;;;;2.05;1.25;;;22.90;53.70;;;;;;5092610;28;20209;-59
2022/06/22 11:30:57;;;;;;;3.47;1.67;;;23.00;53.70;;;;;;5079150;28;20287;-60
2022/06/22 11:33:44;;;;;;;2.35;1.60;;;23.00;53.70;;;;;;5092502;28;20555;-60
2022/06/22 11:36:19;;;;;;;2.85;1.50;;;23.00;53.60;;;;;;5092977;28;20158;-60
2022/06/22 11:39:16;;;;;;;3.10;1.48;;;23.00;53.60;;;;;;5093328;28;20272;-60
2022/06/22 11:42:38;;;;;;;1.80;1.10;;;23.00;53.50;;;;;;5091593;28;20269;-59
2022/06/22 11:45:50;;;;;;;2.17;1.67;;;23.00;53.50;;;;;;5030809;28;20231;-59
2022/06/22 11:48:18;;;;;;;2.85;1.42;;;23.00;53.40;;;;;;5031028;28;20168;-59
2022/06/22 11:51:06;;;;;;;1.67;1.45;;;23.00;53.40;;;;;;5087238;28;20208;-58
2022/06/22 11:53:57;;;;;;;1.60;1.38;;;23.00;53.30;;;;;;5093313;28;20227;-59
2022/06/22 11:56:51;;;;;;;1.80;1.30;;;23.10;53.30;;;;;;5091931;28;20599;-60
2022/06/22 11:59:17;;;;;;;3.83;1.30;;;23.10;53.20;;;;;;5078235;28;20169;-60
2022/06/22 12:01:58;;;;;;;6.75;1.77;;;23.00;53.10;;;;;;5092847;28;20256;-60
2022/06/22 12:04:45;;;;;;;2.55;1.40;;;23.10;53.10;;;;;;5098074;28;20699;-60
2022/06/22 12:07:19;;;;;;;2.28;1.20;;;23.10;53.00;;;;;;5113510;28;20175;-59
2022/06/22 12:09:45;;;;;;;1.08;0.98;;;23.10;52.90;;;;;;5117555;28;20169;-57
2022/06/22 12:12:33;;;;;;;1.92;1.30;;;23.10;52.90;;;;;;5113090;28;20169;-59
2022/06/22 12:15:14;;;;;;;1.30;1.20;;;23.10;52.80;;;;;;5111906;28;20643;-60
2022/06/22 12:17:58;;;;;;;1.52;1.35;;;23.20;52.80;;;;;;5111765;28;20253;-60
2022/06/22 12:20:45;;;;;;;1.92;1.40;;;23.20;52.70;;;;;;5113227;28;20689;-60
2022/06/22 12:23:30;;;;;;;3.60;1.40;;;23.20;52.50;;;;;;5113251;28;20288;-60
2022/06/22 12:26:02;;;;;;;2.38;1.25;;;23.20;52.40;;;;;;5111205;28;20588;-61
2022/06/22 12:29:00;;;;;;;2.67;1.30;;;23.30;52.40;;;;;;5113382;28;20169;-60
2022/06/22 12:31:30;;;;;;;2.15;1.63;;;23.30;52.30;;;;;;5030488;28;20184;-60
2022/06/22 12:34:03;;;;;;;3.88;1.20;;;23.30;52.10;;;;;;5026241;28;20193;-61
2022/06/22 12:36:36;;;;;;;2.25;1.20;;;23.40;52.10;;;;;;5114384;28;20173;-61
2022/06/22 12:39:21;;;;;;;1.83;1.08;;;23.40;52.00;;;;;;5115277;28;20200;-60
2022/06/22 12:42:07;;;;;;;2.10;1.27;;;23.40;51.80;;;;;;5115899;28;20176;-60
2022/06/22 12:44:46;;;;;;;1.25;1.10;;;23.40;51.80;;;;;;5115995;28;20201;-60
2022/06/22 12:47:39;;;;;;;2.53;1.52;;;23.40;51.60;;;;;;5116547;28;20169;-59
2022/06/22 12:50:34;;;;;;;1.95;1.20;;;23.50;51.60;;;;;;5115939;28;20305;-59
2022/06/22 12:53:03;;;;;;;2.05;1.10;;;23.50;51.60;;;;;;5114670;28;20187;-60
2022/06/22 12:55:39;;;;;;;3.63;1.52;;;23.50;51.50;;;;;;5116998;28;20184;-60
2022/06/22 12:58:11;;;;;;;1.35;1.20;;;23.50;51.40;;;;;;5115811;28;20172;-60
2022/06/22 13:00:37;;;;;;;1.63;1.05;;;23.50;51.30;;;;;;5115989;28;20309;-60
2022/06/22 13:03:03;;;;;;;1.52;1.42;;;23.60;51.30;;;;;;5116454;28;20333;-60
2022/06/22 13:05:34;;;;;;;1.33;1.10;;;23.60;51.20;;;;;;5098967;28;20655;-60
2022/06/22 13:08:04;;;;;;;1.45;1.15;;;23.60;51.10;;;;;;5095270;28;20158;-60
2022/06/22 13:10:35;;;;;;;2.10;1.20;;;23.60;51.10;;;;;;5078513;28;20173;-60
2022/06/22 13:13:07;;;;;;;1.80;1.40;;;23.60;51.00;;;;;;5095038;28;20234;-60
2022/06/22 13:15:45;;;;;;;1.42;1.30;;;23.70;50.90;;;;;;5094427;28;20159;-60
2022/06/22 13:18:20;;;;;;;0.90;0.90;;;23.70;50.90;;;;;;5078489;28;20177;-60
2022/06/22 13:20:48;;;;;;;1.50;1.10;;;23.70;50.80;;;;;;5094535;28;20647;-60
2022/06/22 13:23:47;;;;;;;2.10;1.08;;;23.70;50.80;;;;;;5094169;28;20241;-60
2022/06/22 13:26:18;;;;;;;1.10;0.93;;;23.70;50.70;;;;;;5061840;28;20182;-60
2022/06/22 13:28:49;;;;;;;1.92;1.40;;;23.80;50.70;;;;;;5094616;28;20547;-60
2022/06/22 13:31:28;;;;;;;1.10;1.10;;;23.80;50.70;;;;;;5094746;28;20627;-60
2022/06/22 13:34:08;;;;;;;1.92;1.50;;;23.80;50.70;;;;;;5094511;28;20258;-61
2022/06/22 13:36:49;;;;;;;1.08;0.98;;;23.80;50.70;;;;;;5093691;28;20181;-60
2022/06/22 13:39:29;;;;;;;2.15;1.10;;;23.90;50.70;;;;;;5095850;28;20184;-60
2022/06/22 13:42:19;;;;;;;1.30;1.20;;;23.90;50.60;;;;;;5095339;28;20181;-60
2022/06/22 13:44:49;;;;;;;1.83;1.10;;;23.90;50.50;;;;;;5095253;28;20274;-60
2022/06/22 13:47:23;;;;;;;1.77;1.20;;;23.90;50.50;;;;;;5093283;28;20170;-60
2022/06/22 13:50:17;;;;;;;1.27;1.15;;;23.90;50.50;;;;;;5094623;28;20222;-59
2022/06/22 13:52:45;;;;;;;1.00;1.00;;;24.00;50.40;;;;;;5094404;28;20604;-60
2022/06/22 13:55:22;;;;;;;2.30;1.63;;;24.00;50.40;;;;;;5095358;28;20188;-60
2022/06/22 13:57:57;;;;;;;1.67;1.00;;;24.00;50.30;;;;;;5094137;28;20173;-60